Time;durP1;ratioP1;P1;durP2;ratioP2;P2;SDS_P1;SDS_P2;PMS_P1;PMS_P2;Temp;Humidity;BMP_temperature;BMP_pressure;BME280_temperature;BME280_humidity;BME280_pressure;Samples;Min_cycle;Max_cycle;Signal;HPM_P1;HPM_P2
2022/09/09 00:01:50;;;;;;;20.88;9.60;;;;;;;;;;4925967;29;20063;-66
2022/09/09 00:04:29;;;;;;;18.85;10.05;;;;;;;;;;4934544;29;20063;-66
2022/09/09 00:07:08;;;;;;;20.35;9.45;;;;;;;;;;4970816;28;20050;-66
2022/09/09 00:10:19;;;;;;;19.70;9.80;;;;;;;;;;4972838;28;20062;-66
2022/09/09 00:12:55;;;;;;;18.17;9.35;;;;;;;;;;4952771;29;20055;-66
2022/09/09 00:15:47;;;;;;;29.05;9.82;;;;;;;;;;4953332;29;20059;-66
2022/09/09 00:18:50;;;;;;;17.50;9.13;;;;;;;;;;4953540;29;20066;-66
2022/09/09 00:21:34;;;;;;;20.70;9.55;;;;;;;;;;4938186;28;20130;-66
2022/09/09 00:24:25;;;;;;;21.73;10.70;;;;;;;;;;4956908;28;20046;-66
2022/09/09 00:27:09;;;;;;;19.80;9.55;;;;;;;;;;4972404;28;20059;-66
2022/09/09 00:29:58;;;;;;;21.55;9.98;;;;;;;;;;4972623;28;20062;-66
2022/09/09 00:32:35;;;;;;;22.85;10.45;;;;;;;;;;4867795;29;20196;-66
2022/09/09 00:35:28;;;;;;;24.80;10.65;;;;;;;;;;4914779;29;20044;-66
2022/09/09 00:38:06;;;;;;;25.25;10.88;;;;;;;;;;4914795;29;20412;-66
2022/09/09 00:40:51;;;;;;;25.75;11.27;;;;;;;;;;4914744;29;20059;-66
2022/09/09 00:43:32;;;;;;;19.77;10.40;;;;;;;;;;4882128;29;20063;-66
2022/09/09 00:46:22;;;;;;;22.05;10.30;;;;;;;;;;4895865;29;20064;-66
2022/09/09 00:49:14;;;;;;;22.33;10.52;;;;;;;;;;4914785;29;20068;-66
2022/09/09 00:51:57;;;;;;;21.33;10.93;;;;;;;;;;4914409;29;20052;-65
2022/09/09 00:54:59;;;;;;;23.55;10.23;;;;;;;;;;4914333;29;20070;-66
2022/09/09 00:57:31;;;;;;;23.08;10.40;;;;;;;;;;4876137;29;20048;-66
2022/09/09 01:00:47;;;;;;;25.40;11.93;;;;;;;;;;4876878;29;20072;-66
2022/09/09 01:03:27;;;;;;;20.63;10.27;;;;;;;;;;4883476;29;20059;-66
2022/09/09 01:06:15;;;;;;;25.65;12.07;;;;;;;;;;4895187;29;20060;-66
2022/09/09 01:09:05;;;;;;;24.05;12.13;;;;;;;;;;4895406;29;20194;-66
2022/09/09 01:11:55;;;;;;;22.48;11.93;;;;;;;;;;4895163;29;20072;-66
2022/09/09 01:14:36;;;;;;;25.10;12.25;;;;;;;;;;4876181;29;20533;-66
2022/09/09 01:17:18;;;;;;;24.55;11.38;;;;;;;;;;4894832;29;20060;-66
2022/09/09 01:20:10;;;;;;;23.60;10.27;;;;;;;;;;4896252;29;20061;-66
2022/09/09 01:23:22;;;;;;;21.27;9.35;;;;;;;;;;4894804;29;20068;-66
2022/09/09 01:26:40;;;;;;;18.55;8.63;;;;;;;;;;4876065;29;20399;-66
2022/09/09 01:29:20;;;;;;;21.27;9.10;;;;;;;;;;4829039;29;20054;-66
2022/09/09 01:31:55;;;;;;;17.48;8.70;;;;;;;;;;4799321;29;20070;-66
2022/09/09 01:34:35;;;;;;;17.38;7.70;;;;;;;;;;4869128;29;20072;-66
2022/09/09 01:37:12;;;;;;;15.82;8.13;;;;;;;;;;4895048;29;20056;-66
2022/09/09 01:39:44;;;;;;;27.95;9.27;;;;;;;;;;4894820;29;20084;-66
2022/09/09 01:42:18;;;;;;;20.88;8.93;;;;;;;;;;4875632;29;20057;-66
2022/09/09 01:44:49;;;;;;;16.48;8.63;;;;;;;;;;4876059;29;20057;-66
2022/09/09 01:47:20;;;;;;;21.23;8.35;;;;;;;;;;4875892;29;20053;-67
2022/09/09 01:50:11;;;;;;;20.52;8.25;;;;;;;;;;4844535;29;20422;-66
2022/09/09 01:52:42;;;;;;;15.98;8.15;;;;;;;;;;4851801;29;20422;-66
2022/09/09 01:55:15;;;;;;;15.57;7.80;;;;;;;;;;4881146;29;20429;-66
2022/09/09 01:57:56;;;;;;;16.38;7.63;;;;;;;;;;4901150;29;20048;-66
2022/09/09 02:00:27;;;;;;;13.50;7.18;;;;;;;;;;4893929;29;20135;-66
2022/09/09 02:03:14;;;;;;;20.27;8.60;;;;;;;;;;4912742;29;20056;-66
2022/09/09 02:06:35;;;;;;;15.70;8.00;;;;;;;;;;4925433;29;20175;-67
2022/09/09 02:09:23;;;;;;;14.43;7.68;;;;;;;;;;4959224;28;20411;-66
2022/09/09 02:12:17;;;;;;;14.60;7.00;;;;;;;;;;4956473;28;20054;-67
2022/09/09 02:15:00;;;;;;;17.67;8.13;;;;;;;;;;4920681;29;20051;-66
2022/09/09 02:17:42;;;;;;;17.23;7.20;;;;;;;;;;4925047;28;20189;-66
2022/09/09 02:20:18;;;;;;;17.00;7.47;;;;;;;;;;4919704;29;20047;-66
2022/09/09 02:22:59;;;;;;;13.43;6.95;;;;;;;;;;4951005;29;20066;-66
2022/09/09 02:25:30;;;;;;;13.25;7.38;;;;;;;;;;4931050;29;20052;-66
2022/09/09 02:28:14;;;;;;;15.57;7.75;;;;;;;;;;4912276;29;20211;-66
2022/09/09 02:30:51;;;;;;;13.43;7.22;;;;;;;;;;4912458;29;20060;-66
2022/09/09 02:33:28;;;;;;;15.45;7.50;;;;;;;;;;4886590;29;20057;-66
2022/09/09 02:36:03;;;;;;;13.88;7.38;;;;;;;;;;4861616;29;20060;-66
2022/09/09 02:38:39;;;;;;;17.70;7.70;;;;;;;;;;4838599;29;20064;-67
2022/09/09 02:41:14;;;;;;;16.75;7.40;;;;;;;;;;4875259;29;20057;-66
2022/09/09 02:43:44;;;;;;;16.75;7.03;;;;;;;;;;4893365;29;20070;-67
2022/09/09 02:46:23;;;;;;;18.63;7.80;;;;;;;;;;4893546;29;20085;-67
2022/09/09 02:49:09;;;;;;;16.30;7.60;;;;;;;;;;4891601;29;20424;-67
2022/09/09 02:52:00;;;;;;;15.13;7.18;;;;;;;;;;4876902;29;20064;-67
2022/09/09 02:54:38;;;;;;;14.88;6.65;;;;;;;;;;4874534;29;20109;-67
2022/09/09 02:57:25;;;;;;;18.30;7.32;;;;;;;;;;4844793;29;20053;-67
2022/09/09 02:59:58;;;;;;;14.15;6.18;;;;;;;;;;4856169;29;20054;-67
2022/09/09 03:02:30;;;;;;;15.98;7.30;;;;;;;;;;4844086;29;20049;-67
2022/09/09 03:05:07;;;;;;;21.67;7.68;;;;;;;;;;4877849;29;20390;-67
2022/09/09 03:07:39;;;;;;;15.40;7.32;;;;;;;;;;4858834;29;20584;-67
2022/09/09 03:10:10;;;;;;;14.07;6.68;;;;;;;;;;4859275;29;20068;-67
2022/09/09 03:12:43;;;;;;;16.92;7.93;;;;;;;;;;4874581;29;20061;-66
2022/09/09 03:15:14;;;;;;;14.05;6.45;;;;;;;;;;4871833;29;20053;-67
2022/09/09 03:17:45;;;;;;;14.80;7.60;;;;;;;;;;4893101;29;20051;-66
2022/09/09 03:20:16;;;;;;;13.68;6.78;;;;;;;;;;4892748;29;20048;-67
2022/09/09 03:22:46;;;;;;;12.25;6.40;;;;;;;;;;4893233;29;20067;-67
2022/09/09 03:25:17;;;;;;;14.35;7.28;;;;;;;;;;4911707;29;20552;-67
2022/09/09 03:27:48;;;;;;;19.75;7.50;;;;;;;;;;4912242;29;20056;-67
2022/09/09 03:30:19;;;;;;;12.02;6.57;;;;;;;;;;4911227;29;20048;-67
2022/09/09 03:32:49;;;;;;;14.35;6.78;;;;;;;;;;4921066;29;20055;-67
2022/09/09 03:35:19;;;;;;;14.27;7.05;;;;;;;;;;4905597;29;20532;-66
2022/09/09 03:37:49;;;;;;;13.20;6.78;;;;;;;;;;4915334;29;20062;-66
2022/09/09 03:40:20;;;;;;;15.15;6.60;;;;;;;;;;4905436;29;20414;-66
2022/09/09 03:42:49;;;;;;;13.98;6.82;;;;;;;;;;4905584;29;20056;-67
2022/09/09 03:45:20;;;;;;;11.77;5.85;;;;;;;;;;4893266;29;20053;-67
2022/09/09 03:47:50;;;;;;;12.40;6.30;;;;;;;;;;4858822;29;20052;-67
2022/09/09 03:50:21;;;;;;;16.63;6.47;;;;;;;;;;4859074;29;20057;-67
2022/09/09 03:52:51;;;;;;;10.25;5.65;;;;;;;;;;4871807;29;20061;-67
2022/09/09 03:55:22;;;;;;;15.65;6.47;;;;;;;;;;4873844;29;20061;-66
2022/09/09 03:57:56;;;;;;;12.18;6.07;;;;;;;;;;4877707;29;20049;-66
2022/09/09 04:00:26;;;;;;;14.75;6.18;;;;;;;;;;4877827;29;20052;-67
2022/09/09 04:02:57;;;;;;;12.13;5.95;;;;;;;;;;4893145;29;20084;-67
2022/09/09 04:05:29;;;;;;;15.68;6.03;;;;;;;;;;4896414;29;20437;-67
2022/09/09 04:07:59;;;;;;;14.18;6.05;;;;;;;;;;4889714;29;20063;-67
2022/09/09 04:10:31;;;;;;;13.07;6.20;;;;;;;;;;4924627;29;20512;-67
2022/09/09 04:13:02;;;;;;;14.77;6.55;;;;;;;;;;4877517;29;20048;-67
2022/09/09 04:15:33;;;;;;;13.80;6.80;;;;;;;;;;4896187;29;20048;-67
2022/09/09 04:18:03;;;;;;;12.73;6.05;;;;;;;;;;4914867;29;20162;-68
2022/09/09 04:20:34;;;;;;;16.65;6.50;;;;;;;;;;4895868;29;20052;-68
2022/09/09 04:23:05;;;;;;;15.52;6.75;;;;;;;;;;4855245;29;20061;-67
2022/09/09 04:25:35;;;;;;;15.45;6.57;;;;;;;;;;4887415;29;20059;-68
2022/09/09 04:28:05;;;;;;;12.88;6.82;;;;;;;;;;4893119;29;20437;-66
2022/09/09 04:30:39;;;;;;;15.38;6.65;;;;;;;;;;4882817;29;20054;-68
2022/09/09 04:33:11;;;;;;;18.38;7.07;;;;;;;;;;4858774;29;20068;-67
2022/09/09 04:35:46;;;;;;;12.45;5.82;;;;;;;;;;4892664;29;20060;-67
2022/09/09 04:38:22;;;;;;;16.15;6.75;;;;;;;;;;4877091;29;20048;-67
2022/09/09 04:40:53;;;;;;;15.30;7.00;;;;;;;;;;4877253;29;20059;-68
2022/09/09 04:43:25;;;;;;;15.02;7.85;;;;;;;;;;4902603;29;20060;-68
2022/09/09 04:45:55;;;;;;;;;;;;;;;;;;4896718;29;20631;-68
2022/09/09 04:48:26;;;;;;;16.42;7.00;;;;;;;;;;4913996;29;19923;-67
2022/09/09 04:50:57;;;;;;;13.57;6.68;;;;;;;;;;4895591;29;20057;-68
2022/09/09 04:53:28;;;;;;;14.93;7.53;;;;;;;;;;4906391;29;20067;-68
2022/09/09 04:56:04;;;;;;;13.38;7.78;;;;;;;;;;4917199;29;20198;-68
2022/09/09 04:58:43;;;;;;;14.45;7.72;;;;;;;;;;4903210;29;20058;-69
2022/09/09 05:01:20;;;;;;;15.20;7.95;;;;;;;;;;4917290;29;20056;-68
2022/09/09 05:03:53;;;;;;;17.83;8.35;;;;;;;;;;4933292;29;20055;-67
2022/09/09 05:06:24;;;;;;;16.05;8.15;;;;;;;;;;4933298;29;20062;-68
2022/09/09 05:08:58;;;;;;;15.30;7.57;;;;;;;;;;4929082;29;20055;-68
2022/09/09 05:11:35;;;;;;;16.17;9.02;;;;;;;;;;4914343;29;20056;-68
2022/09/09 05:14:15;;;;;;;18.23;8.65;;;;;;;;;;4931202;29;20052;-67
2022/09/09 05:16:46;;;;;;;17.05;8.48;;;;;;;;;;4948717;29;20459;-69
2022/09/09 05:19:19;;;;;;;20.17;9.75;;;;;;;;;;4952016;29;20058;-69
2022/09/09 05:21:50;;;;;;;21.80;9.40;;;;;;;;;;4936366;29;20132;-68
2022/09/09 05:24:25;;;;;;;18.23;9.43;;;;;;;;;;4936619;29;20055;-68
2022/09/09 05:27:01;;;;;;;18.98;9.90;;;;;;;;;;4938828;29;20054;-69
2022/09/09 05:29:35;;;;;;;21.17;9.93;;;;;;;;;;4969041;28;20055;-69
2022/09/09 05:32:08;;;;;;;20.27;9.18;;;;;;;;;;4954012;28;20061;-68
2022/09/09 05:34:46;;;;;;;19.10;9.23;;;;;;;;;;4970074;28;20073;-70
2022/09/09 05:37:18;;;;;;;18.25;9.75;;;;;;;;;;4917121;29;20063;-69
2022/09/09 05:39:50;;;;;;;20.15;10.00;;;;;;;;;;4913090;29;20071;-69
2022/09/09 05:42:21;;;;;;;17.10;9.70;;;;;;;;;;4913393;29;20049;-69
2022/09/09 05:44:54;;;;;;;20.30;9.75;;;;;;;;;;4913886;29;20060;-69
2022/09/09 05:47:24;;;;;;;21.40;10.38;;;;;;;;;;4913781;29;20067;-69
2022/09/09 05:49:56;;;;;;;17.58;9.82;;;;;;;;;;4880802;29;20521;-68
2022/09/09 05:52:28;;;;;;;20.30;9.88;;;;;;;;;;4894489;29;20083;-69
2022/09/09 05:54:59;;;;;;;23.00;10.60;;;;;;;;;;4893988;29;20429;-67
2022/09/09 05:57:30;;;;;;;20.95;10.68;;;;;;;;;;4894435;29;20064;-68
2022/09/09 06:00:00;;;;;;;21.20;11.55;;;;;;;;;;4893691;29;20414;-69
2022/09/09 06:02:41;;;;;;;20.27;10.65;;;;;;;;;;4885427;29;20513;-69
2022/09/09 06:05:15;;;;;;;24.25;11.55;;;;;;;;;;4896184;29;20078;-68
2022/09/09 06:07:45;;;;;;;24.58;12.23;;;;;;;;;;4932013;29;20054;-68
2022/09/09 06:10:15;;;;;;;25.33;12.30;;;;;;;;;;4862888;29;20060;-69
2022/09/09 06:12:47;;;;;;;24.15;12.60;;;;;;;;;;4860158;29;20054;-68
2022/09/09 06:15:17;;;;;;;21.10;11.65;;;;;;;;;;4838432;29;20080;-69
2022/09/09 06:17:47;;;;;;;24.30;12.43;;;;;;;;;;4857948;29;20527;-68
2022/09/09 06:20:17;;;;;;;25.90;12.48;;;;;;;;;;4850360;29;20058;-68
2022/09/09 06:22:48;;;;;;;25.65;11.93;;;;;;;;;;4820540;29;20103;-68
2022/09/09 06:25:18;;;;;;;25.73;13.40;;;;;;;;;;4820278;29;20544;-69
2022/09/09 06:27:49;;;;;;;29.90;13.38;;;;;;;;;;4831262;29;20561;-69
2022/09/09 06:30:19;;;;;;;25.45;12.43;;;;;;;;;;4875197;29;20041;-69
2022/09/09 06:32:50;;;;;;;25.67;12.95;;;;;;;;;;4896369;29;20178;-69
2022/09/09 06:35:21;;;;;;;25.67;13.23;;;;;;;;;;4912974;29;20063;-69
2022/09/09 06:37:52;;;;;;;30.23;13.80;;;;;;;;;;4902033;29;20064;-69
2022/09/09 06:40:22;;;;;;;32.92;13.75;;;;;;;;;;4878421;29;20772;-69
2022/09/09 06:42:52;;;;;;;27.60;14.10;;;;;;;;;;4912355;29;20544;-69
2022/09/09 06:45:36;;;;;;;33.85;13.82;;;;;;;;;;4933796;29;20062;-68
2022/09/09 06:48:08;;;;;;;25.13;13.32;;;;;;;;;;4914116;28;20065;-68
2022/09/09 06:50:39;;;;;;;28.15;14.30;;;;;;;;;;4970096;28;20062;-68
2022/09/09 06:53:10;;;;;;;25.75;13.80;;;;;;;;;;4950348;29;20534;-67
2022/09/09 06:55:44;;;;;;;27.23;13.75;;;;;;;;;;4950302;29;20043;-68
2022/09/09 06:58:14;;;;;;;29.67;13.98;;;;;;;;;;4919674;29;20479;-68
2022/09/09 07:00:45;;;;;;;25.73;13.27;;;;;;;;;;4912230;29;20060;-68
2022/09/09 07:03:15;;;;;;;30.10;14.40;;;;;;;;;;4912639;29;20059;-68
2022/09/09 07:05:56;;;;;;;27.30;14.15;;;;;;;;;;4942715;29;20408;-68
2022/09/09 07:08:28;;;;;;;24.73;13.20;;;;;;;;;;4963753;28;20073;-69
2022/09/09 07:11:07;;;;;;;26.33;13.43;;;;;;;;;;4940356;28;20050;-69
2022/09/09 07:13:42;;;;;;;29.15;14.10;;;;;;;;;;4938390;28;20062;-68
2022/09/09 07:16:16;;;;;;;30.75;14.05;;;;;;;;;;4954540;28;20648;-69
2022/09/09 07:18:47;;;;;;;27.60;12.98;;;;;;;;;;4935125;29;20055;-69
2022/09/09 07:21:18;;;;;;;27.92;13.40;;;;;;;;;;4919630;29;20063;-68
2022/09/09 07:23:49;;;;;;;26.40;13.38;;;;;;;;;;4934806;29;20110;-68
2022/09/09 07:26:21;;;;;;;27.45;14.32;;;;;;;;;;4915596;29;20428;-69
2022/09/09 07:28:53;;;;;;;28.17;14.23;;;;;;;;;;4916112;29;20416;-68
2022/09/09 07:31:32;;;;;;;31.75;14.48;;;;;;;;;;4902155;29;20505;-68
2022/09/09 07:34:05;;;;;;;29.83;14.57;;;;;;;;;;4934952;29;20047;-68
2022/09/09 07:36:38;;;;;;;27.77;14.02;;;;;;;;;;4964620;28;20057;-69
2022/09/09 07:39:17;;;;;;;28.10;13.80;;;;;;;;;;4957471;28;20055;-69
2022/09/09 07:41:51;;;;;;;31.00;14.20;;;;;;;;;;4973103;28;20043;-69
2022/09/09 07:44:24;;;;;;;26.83;14.10;;;;;;;;;;4941460;28;20503;-68
2022/09/09 07:47:15;;;;;;;31.02;13.82;;;;;;;;;;4954611;28;20047;-68
2022/09/09 07:49:49;;;;;;;27.67;14.70;;;;;;;;;;4953578;29;20055;-68
2022/09/09 07:52:27;;;;;;;25.38;13.38;;;;;;;;;;4906446;29;20393;-69
2022/09/09 07:55:04;;;;;;;32.15;14.25;;;;;;;;;;4895897;29;20064;-68
2022/09/09 07:57:34;;;;;;;28.38;13.85;;;;;;;;;;4883818;29;20059;-68
2022/09/09 08:00:06;;;;;;;26.02;13.85;;;;;;;;;;4896269;29;20056;-67
2022/09/09 08:02:46;;;;;;;28.25;13.60;;;;;;;;;;4877479;29;20049;-67
2022/09/09 08:05:16;;;;;;;28.48;14.05;;;;;;;;;;4859243;29;20064;-67
2022/09/09 08:07:47;;;;;;;31.88;14.65;;;;;;;;;;4859271;29;20541;-67
2022/09/09 08:10:17;;;;;;;32.15;15.30;;;;;;;;;;4859089;29;20061;-67
2022/09/09 08:12:49;;;;;;;27.80;14.85;;;;;;;;;;4859172;29;20069;-67
2022/09/09 08:15:41;;;;;;;33.38;14.15;;;;;;;;;;4877660;29;20548;-67
2022/09/09 08:18:12;;;;;;;30.83;15.65;;;;;;;;;;4877429;29;20053;-68
2022/09/09 08:20:42;;;;;;;31.20;14.70;;;;;;;;;;4911285;29;20048;-67
2022/09/09 08:23:12;;;;;;;28.30;14.63;;;;;;;;;;4919363;29;20419;-67
2022/09/09 08:25:42;;;;;;;29.02;14.45;;;;;;;;;;4934125;29;20408;-67
2022/09/09 08:28:12;;;;;;;30.55;15.48;;;;;;;;;;4880346;29;20080;-67
2022/09/09 08:30:42;;;;;;;30.38;15.80;;;;;;;;;;4896131;29;20056;-67
2022/09/09 08:33:12;;;;;;;35.22;14.95;;;;;;;;;;4879134;29;20061;-68
2022/09/09 08:35:50;;;;;;;33.13;16.35;;;;;;;;;;4883132;29;20467;-68
2022/09/09 08:38:21;;;;;;;34.60;16.27;;;;;;;;;;4928682;29;20044;-68
2022/09/09 08:41:00;;;;;;;30.02;15.80;;;;;;;;;;4925696;29;20063;-69
2022/09/09 08:43:33;;;;;;;32.58;16.15;;;;;;;;;;4914451;29;20055;-68
2022/09/09 08:46:13;;;;;;;32.03;16.33;;;;;;;;;;4914494;29;20048;-68
2022/09/09 08:48:52;;;;;;;29.23;15.70;;;;;;;;;;4898611;29;20052;-68
2022/09/09 08:51:24;;;;;;;32.50;17.15;;;;;;;;;;4895462;29;20053;-68
2022/09/09 08:53:59;;;;;;;35.22;18.45;;;;;;;;;;4848502;29;20084;-68
2022/09/09 08:56:33;;;;;;;36.00;18.27;;;;;;;;;;4881506;29;20070;-68
2022/09/09 08:59:05;;;;;;;39.80;18.25;;;;;;;;;;4843512;29;20079;-68
2022/09/09 09:01:54;;;;;;;34.58;18.67;;;;;;;;;;4867310;29;20395;-68
2022/09/09 09:05:04;;;;;;;36.53;19.10;;;;;;;;;;4816233;29;20054;-68
2022/09/09 09:08:20;;;;;;;35.13;18.45;;;;;;;;;;4854800;29;20062;-68
2022/09/09 09:10:53;;;;;;;39.88;19.13;;;;;;;;;;4839446;29;20058;-68
2022/09/09 09:13:40;;;;;;;37.58;19.75;;;;;;;;;;4848519;29;20058;-68
2022/09/09 09:16:26;;;;;;;36.22;19.52;;;;;;;;;;4804473;29;20061;-67
2022/09/09 09:18:57;;;;;;;40.13;20.45;;;;;;;;;;4827328;29;20070;-68
2022/09/09 09:21:30;;;;;;;39.90;19.40;;;;;;;;;;4846637;29;20076;-67
2022/09/09 09:24:01;;;;;;;39.50;21.00;;;;;;;;;;4853900;29;20176;-68
2022/09/09 09:26:36;;;;;;;43.38;20.85;;;;;;;;;;4839218;29;20400;-68
2022/09/09 09:29:15;;;;;;;40.97;21.17;;;;;;;;;;4819953;29;20113;-68
2022/09/09 09:32:04;;;;;;;43.03;21.55;;;;;;;;;;4788018;29;20051;-70
2022/09/09 09:34:35;;;;;;;39.20;20.45;;;;;;;;;;4825748;29;20061;-70
2022/09/09 09:37:19;;;;;;;43.17;21.25;;;;;;;;;;4871525;29;20057;-74
2022/09/09 09:39:50;;;;;;;37.70;20.52;;;;;;;;;;4863059;29;20058;-75
2022/09/09 09:42:36;;;;;;;37.55;21.73;;;;;;;;;;4857162;29;20050;-72
2022/09/09 09:45:28;;;;;;;43.63;22.85;;;;;;;;;;4891220;29;20053;-70
2022/09/09 09:48:10;;;;;;;41.15;20.65;;;;;;;;;;4855492;29;20058;-69
2022/09/09 09:51:02;;;;;;;39.60;21.60;;;;;;;;;;4895346;29;20060;-69
2022/09/09 09:53:34;;;;;;;39.10;21.17;;;;;;;;;;4931802;29;20543;-69
2022/09/09 09:56:14;;;;;;;41.42;21.52;;;;;;;;;;4932250;29;20078;-69
2022/09/09 09:58:45;;;;;;;44.00;22.00;;;;;;;;;;4928452;29;20055;-69
2022/09/09 10:01:26;;;;;;;43.88;22.27;;;;;;;;;;4931828;29;20051;-68
2022/09/09 10:04:02;;;;;;;43.15;21.52;;;;;;;;;;4917125;29;20505;-69
2022/09/09 10:06:35;;;;;;;42.60;23.15;;;;;;;;;;4912964;29;20137;-69
2022/09/09 10:09:21;;;;;;;42.00;21.50;;;;;;;;;;4897437;29;20052;-69
2022/09/09 10:12:10;;;;;;;44.78;23.25;;;;;;;;;;4853662;29;20057;-69
2022/09/09 10:15:13;;;;;;;40.70;22.10;;;;;;;;;;4856851;29;20057;-69
2022/09/09 10:18:13;;;;;;;43.72;22.83;;;;;;;;;;4879502;29;20058;-70
2022/09/09 10:21:02;;;;;;;40.70;21.13;;;;;;;;;;4814070;29;20059;-70
2022/09/09 10:23:39;;;;;;;42.17;20.95;;;;;;;;;;4831501;29;20069;-74
2022/09/09 10:26:41;;;;;;;38.85;20.70;;;;;;;;;;4826091;29;20065;-70
2022/09/09 10:29:43;;;;;;;44.33;21.98;;;;;;;;;;4856592;29;20061;-67
2022/09/09 10:32:46;;;;;;;37.90;21.60;;;;;;;;;;4870218;29;20069;-70
2022/09/09 10:35:42;;;;;;;39.72;22.50;;;;;;;;;;4877911;29;20064;-69
2022/09/09 10:38:14;;;;;;;42.15;22.10;;;;;;;;;;4931914;29;20122;-70
2022/09/09 10:40:51;;;;;;;;;;;;;;;;;;4932186;29;20412;-69
2022/09/09 10:43:39;;;;;;;40.15;21.38;;;;;;;;;;4931579;29;19929;-70
2022/09/09 10:46:13;;;;;;;40.83;22.40;;;;;;;;;;4915909;29;20070;-71
2022/09/09 10:49:06;;;;;;;43.97;22.80;;;;;;;;;;4956939;28;20062;-71
2022/09/09 10:51:40;;;;;;;41.45;22.20;;;;;;;;;;4989515;28;20069;-71
2022/09/09 10:54:25;;;;;;;42.83;22.08;;;;;;;;;;4989418;28;20061;-71
2022/09/09 10:57:13;;;;;;;42.92;22.83;;;;;;;;;;4958446;28;20042;-71
2022/09/09 10:59:51;;;;;;;46.15;23.88;;;;;;;;;;4973493;28;20050;-70
2022/09/09 11:02:30;;;;;;;44.22;23.38;;;;;;;;;;4973887;28;20058;-72
2022/09/09 11:05:15;;;;;;;45.47;22.83;;;;;;;;;;5020630;28;20831;-69
2022/09/09 11:07:59;;;;;;;41.35;22.45;;;;;;;;;;5048808;28;20057;-70
2022/09/09 11:11:08;;;;;;;47.08;22.67;;;;;;;;;;5048613;28;20068;-71
2022/09/09 11:13:44;;;;;;;43.63;22.45;;;;;;;;;;5015663;28;20052;-73
2022/09/09 11:16:26;;;;;;;45.90;22.45;;;;;;;;;;5015728;28;20060;-71
2022/09/09 11:19:11;;;;;;;44.22;22.48;;;;;;;;;;5077813;28;20732;-71
2022/09/09 11:21:53;;;;;;;39.42;22.05;;;;;;;;;;5088777;28;20059;-71
2022/09/09 11:24:31;;;;;;;44.80;22.42;;;;;;;;;;5088683;28;20044;-71
2022/09/09 11:27:24;;;;;;;;;;;;;;;;;;5069843;28;20075;-71
2022/09/09 11:30:06;;;;;;;46.80;23.63;;;;;;;;;;5032025;28;20450;-71
2022/09/09 11:32:54;;;;;;;43.92;23.38;;;;;;;;;;5048541;28;20049;-69
2022/09/09 11:35:32;;;;;;;47.35;23.25;;;;;;;;;;5048476;28;20049;-71
2022/09/09 11:38:09;;;;;;;42.40;23.75;;;;;;;;;;5015420;28;20053;-71
2022/09/09 11:40:39;;;;;;;45.58;24.75;;;;;;;;;;4999047;28;20053;-67
2022/09/09 11:43:18;;;;;;;45.13;23.60;;;;;;;;;;5048458;28;20148;-72
2022/09/09 11:45:57;;;;;;;47.38;24.67;;;;;;;;;;5048328;28;20192;-70
2022/09/09 11:48:43;;;;;;;46.90;23.88;;;;;;;;;;5048241;28;20049;-71
2022/09/09 11:51:25;;;;;;;44.80;24.27;;;;;;;;;;5048495;28;20052;-75
2022/09/09 11:54:01;;;;;;;44.60;24.20;;;;;;;;;;5047852;28;20048;-70
2022/09/09 11:56:33;;;;;;;47.28;23.98;;;;;;;;;;5048310;28;20049;-71
2022/09/09 11:59:20;;;;;;;47.45;24.35;;;;;;;;;;5051847;28;20504;-70
2022/09/09 12:02:03;;;;;;;44.63;23.48;;;;;;;;;;5051891;28;20056;-70
2022/09/09 12:04:39;;;;;;;41.90;24.30;;;;;;;;;;5051989;28;20141;-71
2022/09/09 12:07:11;;;;;;;44.85;24.33;;;;;;;;;;5064152;28;20053;-70
2022/09/09 12:09:48;;;;;;;46.97;24.70;;;;;;;;;;5074005;28;20377;-69
2022/09/09 12:12:38;;;;;;;46.00;24.20;;;;;;;;;;5055558;28;20397;-72
2022/09/09 12:15:11;;;;;;;47.85;23.58;;;;;;;;;;5074134;28;20488;-70
2022/09/09 12:17:50;;;;;;;45.10;24.67;;;;;;;;;;5051151;28;20052;-71
2022/09/09 12:20:52;;;;;;;;;;;;;;;;;;5052022;28;21063;-70
2022/09/09 12:23:39;;;;;;;44.78;22.70;;;;;;;;;;5011422;28;19932;-69
2022/09/09 12:26:23;;;;;;;48.35;24.35;;;;;;;;;;4940207;28;20055;-69
2022/09/09 12:29:24;;;;;;;45.60;25.15;;;;;;;;;;4972332;28;20622;-70
2022/09/09 12:31:58;;;;;;;45.33;23.58;;;;;;;;;;4972299;28;20523;-69
2022/09/09 12:34:41;;;;;;;46.53;24.95;;;;;;;;;;4971675;28;20055;-71
2022/09/09 12:37:22;;;;;;;47.08;26.02;;;;;;;;;;4972623;28;20059;-70
2022/09/09 12:39:57;;;;;;;44.95;23.88;;;;;;;;;;4933773;29;20055;-72
2022/09/09 12:42:28;;;;;;;48.55;26.00;;;;;;;;;;4918536;29;20118;-70
2022/09/09 12:45:04;;;;;;;47.17;25.17;;;;;;;;;;4902167;29;20055;-70
2022/09/09 12:47:42;;;;;;;47.13;25.77;;;;;;;;;;4933695;29;20055;-71
2022/09/09 12:50:20;;;;;;;44.58;24.15;;;;;;;;;;4933859;29;20063;-71
2022/09/09 12:52:54;;;;;;;46.50;25.35;;;;;;;;;;4933486;29;20056;-69
2022/09/09 12:55:30;;;;;;;47.05;25.60;;;;;;;;;;4933506;29;20051;-70
2022/09/09 12:58:05;;;;;;;47.10;24.80;;;;;;;;;;4933540;29;20055;-69
2022/09/09 13:00:36;;;;;;;51.05;26.00;;;;;;;;;;4952654;29;20515;-70
2022/09/09 13:03:18;;;;;;;44.13;24.63;;;;;;;;;;4936482;29;20062;-71
2022/09/09 13:05:49;;;;;;;51.97;30.08;;;;;;;;;;4944212;28;20057;-71
2022/09/09 13:08:20;;;;;;;52.40;28.77;;;;;;;;;;4991176;28;20042;-68
2022/09/09 13:11:13;;;;;;;53.00;27.17;;;;;;;;;;4962513;28;20077;-70
2022/09/09 13:13:51;;;;;;;48.53;27.55;;;;;;;;;;4991090;28;20054;-72
2022/09/09 13:16:35;;;;;;;55.50;27.75;;;;;;;;;;4992418;28;20069;-70
2022/09/09 13:19:17;;;;;;;50.67;25.92;;;;;;;;;;5017227;28;20060;-72
2022/09/09 13:21:48;;;;;;;52.90;27.75;;;;;;;;;;5016935;28;20199;-71
2022/09/09 13:24:34;;;;;;;51.85;27.40;;;;;;;;;;5017142;28;20045;-72
2022/09/09 13:27:29;;;;;;;49.75;26.60;;;;;;;;;;5050307;28;20053;-71
2022/09/09 13:30:00;;;;;;;47.58;26.42;;;;;;;;;;5050329;28;20044;-69
2022/09/09 13:32:31;;;;;;;48.03;26.77;;;;;;;;;;5033306;28;20060;-73
2022/09/09 13:35:02;;;;;;;49.28;27.55;;;;;;;;;;5016702;28;20489;-71
2022/09/09 13:37:38;;;;;;;52.53;26.30;;;;;;;;;;5016976;28;20053;-72
2022/09/09 13:40:21;;;;;;;48.80;26.75;;;;;;;;;;5049970;28;20061;-70
2022/09/09 13:42:57;;;;;;;52.47;28.35;;;;;;;;;;5000763;28;20057;-71
2022/09/09 13:45:28;;;;;;;52.17;27.48;;;;;;;;;;5018747;28;20057;-70
2022/09/09 13:48:10;;;;;;;50.50;27.95;;;;;;;;;;5000458;28;20057;-71
2022/09/09 13:50:41;;;;;;;50.05;27.90;;;;;;;;;;5016243;28;20088;-70
2022/09/09 13:53:12;;;;;;;52.35;29.38;;;;;;;;;;5032532;28;20056;-70
2022/09/09 13:55:43;;;;;;;;;;;;;;;;;;5050041;28;20060;-70
2022/09/09 13:58:19;;;;;;;52.45;28.88;;;;;;;;;;5000458;28;20315;-71
2022/09/09 14:00:49;;;;;;;54.90;29.75;;;;;;;;;;5049753;28;20057;-72
2022/09/09 14:03:20;;;;;;;50.38;28.20;;;;;;;;;;5065884;28;20554;-72
2022/09/09 14:05:51;;;;;;;53.78;29.58;;;;;;;;;;5052724;28;20068;-72
2022/09/09 14:08:25;;;;;;;55.13;30.67;;;;;;;;;;5012795;28;20543;-73
2022/09/09 14:10:58;;;;;;;53.40;28.73;;;;;;;;;;5026341;28;20064;-72
2022/09/09 14:13:28;;;;;;;55.97;31.00;;;;;;;;;;5041601;28;20055;-72
2022/09/09 14:15:58;;;;;;;57.45;31.08;;;;;;;;;;5007443;28;20063;-71
2022/09/09 14:18:29;;;;;;;54.83;31.10;;;;;;;;;;5048734;28;20057;-74
2022/09/09 14:20:59;;;;;;;57.80;32.70;;;;;;;;;;5048231;28;20455;-74
2022/09/09 14:23:29;;;;;;;57.85;30.48;;;;;;;;;;5015667;28;20479;-71
2022/09/09 14:25:59;;;;;;;58.50;30.25;;;;;;;;;;4989701;28;20053;-70
2022/09/09 14:28:29;;;;;;;59.15;31.80;;;;;;;;;;4957049;28;20054;-72
2022/09/09 14:31:19;;;;;;;57.15;31.05;;;;;;;;;;4970972;28;20399;-71
2022/09/09 14:33:50;;;;;;;57.30;31.17;;;;;;;;;;4940683;28;20050;-73
2022/09/09 14:36:21;;;;;;;57.15;32.80;;;;;;;;;;4973995;28;20050;-71
2022/09/09 14:38:51;;;;;;;60.53;32.90;;;;;;;;;;4989336;28;20284;-72
2022/09/09 14:41:22;;;;;;;59.33;32.63;;;;;;;;;;4979012;28;20514;-72
2022/09/09 14:43:53;;;;;;;59.10;31.70;;;;;;;;;;4965950;28;20058;-72
2022/09/09 14:46:24;;;;;;;60.80;32.75;;;;;;;;;;4982710;28;20058;-73
2022/09/09 14:48:54;;;;;;;57.30;32.42;;;;;;;;;;4954294;28;20063;-73
2022/09/09 14:51:27;;;;;;;61.88;33.10;;;;;;;;;;4982301;28;20058;-72
2022/09/09 14:53:59;;;;;;;62.20;33.97;;;;;;;;;;4988891;28;20065;-71
2022/09/09 14:56:35;;;;;;;61.20;33.30;;;;;;;;;;4989247;28;20057;-72
2022/09/09 14:59:06;;;;;;;61.00;34.22;;;;;;;;;;4989307;28;20160;-73
2022/09/09 15:01:35;;;;;;;58.38;31.77;;;;;;;;;;4989496;28;20046;-73
2022/09/09 15:04:06;;;;;;;60.58;34.17;;;;;;;;;;4997230;28;21319;-73
2022/09/09 15:06:39;;;;;;;58.97;32.60;;;;;;;;;;4992402;28;20046;-73
2022/09/09 15:09:10;;;;;;;61.35;33.80;;;;;;;;;;5009088;28;20054;-72
2022/09/09 15:11:40;;;;;;;55.08;32.42;;;;;;;;;;5009162;28;20050;-72
2022/09/09 15:14:11;;;;;;;61.03;34.25;;;;;;;;;;4960276;28;20541;-73
2022/09/09 15:16:42;;;;;;;57.80;33.17;;;;;;;;;;4973206;28;20047;-74
2022/09/09 15:19:12;;;;;;;59.38;34.42;;;;;;;;;;4989364;28;20070;-76
2022/09/09 15:21:41;;;;;;;60.15;33.97;;;;;;;;;;5023402;28;20480;-70
2022/09/09 15:24:13;;;;;;;57.90;32.90;;;;;;;;;;4989049;28;20065;-73